KAL788 RJFF-RKSI
Flight info
| Callsign | KAL788 |
|---|---|
| Flight time | 1h 8m |
| Altitude | 28000 |
| Route | HAKAT5 16R/ DGC G339 BEETL Y208 INVOK Z91 PSN Y782 BITUX Z53 BASEM Y685 GUKDO |
| Aircraft | B77W/H-SDE1E2E3FGHIJ2J3J4J5M1RWXY/LB1D1 |
Departure
| Time | 2026-05-05 01:31 |
|---|---|
| Airport | Fukuoka Airport (RJFF) |
Arrival
| Time | 2026-05-05 02:40 |
|---|---|
| Airport | Incheon International Airport (RKSI) |
| Time | Latitude | Longitude | Altitude | Speed | Heading |
|---|---|---|---|---|---|
| 2026-05-05 01:02 | 33.58574 | 130.44510 | 38 ft | 0 kts | 241° |
| 2026-05-05 01:03 | 33.58575 | 130.44510 | 38 ft | 0 kts | 241° |
| 2026-05-05 01:13 | 33.58584 | 130.44530 | 37 ft | 3 kts | 241° |
| 2026-05-05 01:13 | 33.58595 | 130.44555 | 38 ft | 3 kts | 241° |
| 2026-05-05 01:14 | 33.58604 | 130.44574 | 38 ft | 3 kts | 255° |
| 2026-05-05 01:14 | 33.58606 | 130.44594 | 38 ft | 3 kts | 289° |
| 2026-05-05 01:14 | 33.58597 | 130.44612 | 38 ft | 3 kts | 321° |
| 2026-05-05 01:14 | 33.58579 | 130.44626 | 38 ft | 3 kts | 330° |
| 2026-05-05 01:15 | 33.58563 | 130.44638 | 38 ft | 0 kts | 330° |
| 2026-05-05 01:18 | 33.58567 | 130.44635 | 39 ft | 3 kts | 330° |
| 2026-05-05 01:18 | 33.58573 | 130.44630 | 38 ft | 0 kts | 330° |
| 2026-05-05 01:22 | 33.58573 | 130.44631 | 38 ft | 0 kts | 330° |
| 2026-05-05 01:27 | 33.58574 | 130.44630 | 41 ft | 0 kts | 330° |
| 2026-05-05 01:27 | 33.58601 | 130.44612 | 41 ft | 12 kts | 330° |
| 2026-05-05 01:27 | 33.58690 | 130.44551 | 38 ft | 16 kts | 330° |
| 2026-05-05 01:27 | 33.58795 | 130.44479 | 37 ft | 18 kts | 330° |
| 2026-05-05 01:28 | 33.58901 | 130.44407 | 37 ft | 16 kts | 334° |
| 2026-05-05 01:28 | 33.59014 | 130.44395 | 34 ft | 17 kts | 345° |
| 2026-05-05 01:28 | 33.59125 | 130.44328 | 35 ft | 18 kts | 331° |
| 2026-05-05 01:28 | 33.59218 | 130.44267 | 35 ft | 13 kts | 330° |
| 2026-05-05 01:29 | 33.59302 | 130.44210 | 34 ft | 15 kts | 331° |
| 2026-05-05 01:29 | 33.59393 | 130.44150 | 34 ft | 15 kts | 331° |
| 2026-05-05 01:29 | 33.59453 | 130.44110 | 34 ft | 15 kts | 331° |
| 2026-05-05 01:29 | 33.59564 | 130.44101 | 32 ft | 8 kts | 50° |
| 2026-05-05 01:30 | 33.59564 | 130.44145 | 33 ft | 5 kts | 117° |
| 2026-05-05 01:30 | 33.59548 | 130.44163 | 33 ft | 5 kts | 142° |
| 2026-05-05 01:30 | 33.59515 | 130.44189 | 34 ft | 12 kts | 148° |
| 2026-05-05 01:30 | 33.59038 | 130.44514 | 34 ft | 116 kts | 150° |
| 2026-05-05 01:31 | 33.58476 | 130.44895 | 47 ft | 162 kts | 150° |
| 2026-05-05 01:31 | 33.57479 | 130.45579 | 822 ft | 168 kts | 150° |
| 2026-05-05 01:31 | 33.56448 | 130.46281 | 1774 ft | 172 kts | 151° |
| 2026-05-05 01:31 | 33.55365 | 130.47024 | 2487 ft | 189 kts | 151° |
| 2026-05-05 01:32 | 33.54152 | 130.47828 | 3066 ft | 208 kts | 152° |
| 2026-05-05 01:32 | 33.52813 | 130.48753 | 3535 ft | 237 kts | 150° |
| 2026-05-05 01:32 | 33.51351 | 130.49769 | 4357 ft | 247 kts | 151° |
| 2026-05-05 01:32 | 33.49817 | 130.50810 | 5204 ft | 259 kts | 152° |
| 2026-05-05 01:33 | 33.48204 | 130.51895 | 6043 ft | 269 kts | 151° |
| 2026-05-05 01:33 | 33.46594 | 130.53009 | 7139 ft | 268 kts | 150° |
| 2026-05-05 01:33 | 33.44949 | 130.54144 | 7895 ft | 277 kts | 151° |
| 2026-05-05 01:33 | 33.43221 | 130.55199 | 8677 ft | 283 kts | 163° |
| 2026-05-05 01:34 | 33.41268 | 130.55330 | 9514 ft | 285 kts | 192° |
| 2026-05-05 01:34 | 33.39487 | 130.54313 | 10344 ft | 289 kts | 221° |
| 2026-05-05 01:34 | 33.38174 | 130.52404 | 10838 ft | 308 kts | 238° |
| 2026-05-05 01:34 | 33.37198 | 130.50013 | 11020 ft | 336 kts | 255° |
| 2026-05-05 01:35 | 33.37147 | 130.47150 | 11611 ft | 354 kts | 282° |
| 2026-05-05 01:35 | 33.38174 | 130.44449 | 12635 ft | 365 kts | 307° |
| 2026-05-05 01:35 | 33.40114 | 130.42485 | 13807 ft | 370 kts | 327° |
| 2026-05-05 01:35 | 33.42403 | 130.40990 | 14729 ft | 378 kts | 329° |
| 2026-05-05 01:36 | 33.44745 | 130.39497 | 15704 ft | 382 kts | 332° |
| 2026-05-05 01:36 | 33.47317 | 130.38512 | 16587 ft | 397 kts | 351° |
| 2026-05-05 01:36 | 33.50094 | 130.38478 | 17535 ft | 403 kts | 359° |
| 2026-05-05 01:36 | 33.52925 | 130.38594 | 18517 ft | 410 kts | 359° |
| 2026-05-05 01:37 | 33.55792 | 130.38708 | 19403 ft | 415 kts | 358° |
| 2026-05-05 01:37 | 33.58691 | 130.38800 | 20309 ft | 420 kts | 358° |
| 2026-05-05 01:37 | 33.61628 | 130.38871 | 21183 ft | 426 kts | 357° |
| 2026-05-05 01:37 | 33.64570 | 130.38925 | 21998 ft | 428 kts | 355° |
| 2026-05-05 01:38 | 33.67532 | 130.38377 | 22628 ft | 426 kts | 336° |
| 2026-05-05 01:38 | 33.70112 | 130.36799 | 23438 ft | 420 kts | 319° |
| 2026-05-05 01:38 | 33.72390 | 130.34642 | 24235 ft | 418 kts | 316° |
| 2026-05-05 01:38 | 33.74642 | 130.32452 | 25209 ft | 414 kts | 315° |
| 2026-05-05 01:39 | 33.76865 | 130.30292 | 26319 ft | 408 kts | 315° |
| 2026-05-05 01:39 | 33.79063 | 130.28165 | 27361 ft | 405 kts | 314° |
| 2026-05-05 01:39 | 33.81262 | 130.26046 | 28052 ft | 404 kts | 314° |
| 2026-05-05 01:39 | 33.83461 | 130.23934 | 28193 ft | 406 kts | 314° |
| 2026-05-05 01:40 | 33.87878 | 130.19707 | 28202 ft | 405 kts | 314° |
| 2026-05-05 01:40 | 33.92284 | 130.15496 | 28204 ft | 405 kts | 315° |
| 2026-05-05 01:41 | 33.96696 | 130.11277 | 28211 ft | 405 kts | 315° |
| 2026-05-05 01:41 | 34.01110 | 130.07048 | 28208 ft | 406 kts | 315° |
| 2026-05-05 01:42 | 34.05528 | 130.02811 | 28210 ft | 406 kts | 315° |
| 2026-05-05 01:42 | 34.09954 | 129.98559 | 28209 ft | 407 kts | 315° |
| 2026-05-05 01:43 | 34.14385 | 129.94297 | 28204 ft | 407 kts | 315° |
| 2026-05-05 01:43 | 34.18816 | 129.90028 | 28205 ft | 408 kts | 315° |
| 2026-05-05 01:44 | 34.23249 | 129.85752 | 28202 ft | 408 kts | 316° |
| 2026-05-05 01:44 | 34.27685 | 129.81475 | 28204 ft | 408 kts | 316° |
| 2026-05-05 01:45 | 34.32143 | 129.77227 | 28203 ft | 408 kts | 316° |
| 2026-05-05 01:45 | 34.36601 | 129.72981 | 28196 ft | 408 kts | 316° |
| 2026-05-05 01:46 | 34.41054 | 129.68728 | 28195 ft | 408 kts | 316° |
| 2026-05-05 01:46 | 34.45508 | 129.64465 | 28190 ft | 408 kts | 316° |
| 2026-05-05 01:47 | 34.49955 | 129.60201 | 28192 ft | 408 kts | 316° |
| 2026-05-05 01:47 | 34.54331 | 129.56000 | 28195 ft | 408 kts | 316° |
| 2026-05-05 01:48 | 34.58773 | 129.51730 | 28202 ft | 407 kts | 316° |
| 2026-05-05 01:48 | 34.63214 | 129.47454 | 28208 ft | 407 kts | 316° |
| 2026-05-05 01:49 | 34.67628 | 129.43198 | 28199 ft | 408 kts | 316° |
| 2026-05-05 01:49 | 34.72096 | 129.38883 | 28195 ft | 408 kts | 316° |
| 2026-05-05 01:50 | 34.76510 | 129.34616 | 28195 ft | 408 kts | 316° |
| 2026-05-05 01:50 | 34.80949 | 129.30322 | 28195 ft | 408 kts | 317° |
| 2026-05-05 01:51 | 34.85391 | 129.26033 | 28192 ft | 408 kts | 317° |
| 2026-05-05 01:51 | 34.89122 | 129.22444 | 28196 ft | 408 kts | 319° |
| 2026-05-05 01:52 | 34.92993 | 129.19575 | 28200 ft | 414 kts | 328° |
| 2026-05-05 01:52 | 34.98118 | 129.16377 | 28194 ft | 414 kts | 328° |
| 2026-05-05 01:53 | 35.03253 | 129.13170 | 28192 ft | 415 kts | 328° |
| 2026-05-05 01:53 | 35.08384 | 129.09933 | 28190 ft | 415 kts | 328° |
| 2026-05-05 01:54 | 35.13509 | 129.06680 | 28192 ft | 415 kts | 328° |
| 2026-05-05 01:54 | 35.18638 | 129.03416 | 28178 ft | 416 kts | 328° |
| 2026-05-05 01:55 | 35.23770 | 129.00145 | 28190 ft | 416 kts | 328° |
| 2026-05-05 01:55 | 35.28900 | 128.96870 | 28184 ft | 416 kts | 328° |
| 2026-05-05 01:56 | 35.34030 | 128.93591 | 28184 ft | 416 kts | 328° |
| 2026-05-05 01:56 | 35.39167 | 128.90302 | 28171 ft | 416 kts | 328° |
| 2026-05-05 01:57 | 35.44295 | 128.87015 | 28173 ft | 416 kts | 328° |
| 2026-05-05 01:57 | 35.49428 | 128.83722 | 28166 ft | 416 kts | 328° |
| 2026-05-05 01:58 | 35.54551 | 128.80430 | 28176 ft | 415 kts | 328° |
| 2026-05-05 01:58 | 35.59674 | 128.77128 | 28166 ft | 416 kts | 328° |
| 2026-05-05 01:59 | 35.64809 | 128.73817 | 28165 ft | 417 kts | 328° |
| 2026-05-05 01:59 | 35.69942 | 128.70504 | 28177 ft | 417 kts | 328° |
| 2026-05-05 02:00 | 35.75077 | 128.67182 | 28189 ft | 417 kts | 328° |
| 2026-05-05 02:00 | 35.80220 | 128.63850 | 28194 ft | 418 kts | 328° |
| 2026-05-05 02:01 | 35.85364 | 128.60517 | 28186 ft | 418 kts | 328° |
| 2026-05-05 02:01 | 35.90500 | 128.57182 | 28189 ft | 417 kts | 328° |
| 2026-05-05 02:02 | 35.95635 | 128.53841 | 28183 ft | 417 kts | 328° |
| 2026-05-05 02:02 | 36.00733 | 128.50521 | 28182 ft | 417 kts | 329° |
| 2026-05-05 02:03 | 36.05858 | 128.47175 | 28164 ft | 417 kts | 329° |
| 2026-05-05 02:03 | 36.10987 | 128.43825 | 28151 ft | 417 kts | 329° |
| 2026-05-05 02:04 | 36.16110 | 128.40473 | 28139 ft | 416 kts | 329° |
| 2026-05-05 02:04 | 36.21227 | 128.37120 | 28142 ft | 416 kts | 329° |
| 2026-05-05 02:05 | 36.26343 | 128.33761 | 28141 ft | 416 kts | 329° |
| 2026-05-05 02:05 | 36.31400 | 128.30440 | 27725 ft | 405 kts | 329° |
| 2026-05-05 02:06 | 36.33865 | 128.28821 | 27405 ft | 398 kts | 329° |
| 2026-05-05 02:06 | 36.36292 | 128.27224 | 27055 ft | 392 kts | 329° |
| 2026-05-05 02:06 | 36.38691 | 128.25645 | 26636 ft | 389 kts | 329° |
| 2026-05-05 02:06 | 36.41077 | 128.24070 | 26144 ft | 388 kts | 329° |
| 2026-05-05 02:07 | 36.43454 | 128.22499 | 25650 ft | 387 kts | 330° |
| 2026-05-05 02:07 | 36.45824 | 128.20932 | 25219 ft | 385 kts | 330° |
| 2026-05-05 02:07 | 36.48182 | 128.19373 | 24796 ft | 383 kts | 330° |
| 2026-05-05 02:07 | 36.50523 | 128.17825 | 24380 ft | 381 kts | 330° |
| 2026-05-05 02:08 | 36.52859 | 128.16280 | 23983 ft | 379 kts | 330° |
| 2026-05-05 02:08 | 36.55178 | 128.14744 | 23561 ft | 377 kts | 330° |
| 2026-05-05 02:08 | 36.57492 | 128.13211 | 23087 ft | 376 kts | 330° |
| 2026-05-05 02:08 | 36.59794 | 128.11684 | 22617 ft | 374 kts | 331° |
| 2026-05-05 02:09 | 36.62085 | 128.10164 | 22148 ft | 373 kts | 331° |
| 2026-05-05 02:09 | 36.64363 | 128.08652 | 21699 ft | 371 kts | 331° |
| 2026-05-05 02:09 | 36.66643 | 128.07137 | 21256 ft | 370 kts | 331° |
| 2026-05-05 02:09 | 36.68908 | 128.05630 | 20806 ft | 369 kts | 331° |
| 2026-05-05 02:10 | 36.71167 | 128.04125 | 20406 ft | 367 kts | 331° |
| 2026-05-05 02:10 | 36.73418 | 128.02628 | 19983 ft | 366 kts | 331° |
| 2026-05-05 02:10 | 36.75658 | 128.01138 | 19558 ft | 365 kts | 331° |
| 2026-05-05 02:10 | 36.77891 | 127.99649 | 19176 ft | 362 kts | 331° |
| 2026-05-05 02:11 | 36.80110 | 127.98167 | 18803 ft | 361 kts | 331° |
| 2026-05-05 02:11 | 36.82285 | 127.96696 | 18654 ft | 350 kts | 330° |
| 2026-05-05 02:11 | 36.84429 | 127.95253 | 18461 ft | 351 kts | 332° |
| 2026-05-05 02:11 | 36.86596 | 127.93830 | 18326 ft | 352 kts | 332° |
| 2026-05-05 02:12 | 36.88772 | 127.92411 | 18221 ft | 353 kts | 332° |
| 2026-05-05 02:12 | 36.93124 | 127.89582 | 18124 ft | 353 kts | 332° |
| 2026-05-05 02:12 | 36.95305 | 127.88168 | 18137 ft | 353 kts | 332° |
| 2026-05-05 02:13 | 36.97493 | 127.86749 | 18139 ft | 355 kts | 332° |
| 2026-05-05 02:13 | 36.99698 | 127.85321 | 18128 ft | 359 kts | 332° |
| 2026-05-05 02:13 | 37.01917 | 127.83885 | 18126 ft | 359 kts | 332° |
| 2026-05-05 02:13 | 37.04132 | 127.82450 | 18129 ft | 358 kts | 332° |
| 2026-05-05 02:14 | 37.06343 | 127.81015 | 18118 ft | 358 kts | 332° |
| 2026-05-05 02:14 | 37.08545 | 127.79568 | 18104 ft | 355 kts | 328° |
| 2026-05-05 02:14 | 37.10439 | 127.77622 | 18134 ft | 353 kts | 309° |
| 2026-05-05 02:14 | 37.11735 | 127.75040 | 18125 ft | 351 kts | 291° |
| 2026-05-05 02:15 | 37.12337 | 127.72092 | 18125 ft | 350 kts | 276° |
| 2026-05-05 02:15 | 37.12507 | 127.70085 | 18120 ft | 349 kts | 273° |
| 2026-05-05 02:15 | 37.12661 | 127.67048 | 18138 ft | 350 kts | 271° |
| 2026-05-05 02:15 | 37.12817 | 127.62958 | 18113 ft | 352 kts | 271° |
| 2026-05-05 02:16 | 37.12890 | 127.60930 | 18117 ft | 352 kts | 271° |
| 2026-05-05 02:16 | 37.12999 | 127.57863 | 18113 ft | 352 kts | 271° |
| 2026-05-05 02:16 | 37.13105 | 127.54807 | 18021 ft | 350 kts | 271° |
| 2026-05-05 02:16 | 37.13209 | 127.51780 | 17779 ft | 346 kts | 271° |
| 2026-05-05 02:17 | 37.13313 | 127.48772 | 17394 ft | 345 kts | 271° |
| 2026-05-05 02:17 | 37.13418 | 127.45761 | 16931 ft | 347 kts | 271° |
| 2026-05-05 02:17 | 37.13527 | 127.42743 | 16581 ft | 346 kts | 271° |
| 2026-05-05 02:17 | 37.13641 | 127.39742 | 16291 ft | 343 kts | 271° |
| 2026-05-05 02:18 | 37.13755 | 127.36780 | 16022 ft | 340 kts | 271° |
| 2026-05-05 02:18 | 37.13869 | 127.33830 | 15698 ft | 338 kts | 271° |
| 2026-05-05 02:18 | 37.13986 | 127.30892 | 15364 ft | 337 kts | 271° |
| 2026-05-05 02:18 | 37.14108 | 127.27974 | 15198 ft | 332 kts | 271° |
| 2026-05-05 02:19 | 37.14229 | 127.25104 | 15156 ft | 330 kts | 271° |
| 2026-05-05 02:19 | 37.14351 | 127.22218 | 15159 ft | 334 kts | 271° |
| 2026-05-05 02:19 | 37.14471 | 127.19287 | 15158 ft | 339 kts | 271° |
| 2026-05-05 02:19 | 37.14597 | 127.16329 | 15157 ft | 339 kts | 271° |
| 2026-05-05 02:20 | 37.14721 | 127.13386 | 15166 ft | 338 kts | 271° |
| 2026-05-05 02:20 | 37.14844 | 127.10450 | 15160 ft | 337 kts | 271° |
| 2026-05-05 02:20 | 37.14970 | 127.07528 | 15161 ft | 335 kts | 271° |
| 2026-05-05 02:20 | 37.15093 | 127.04610 | 15154 ft | 335 kts | 271° |
| 2026-05-05 02:21 | 37.15213 | 127.01701 | 15161 ft | 334 kts | 271° |
| 2026-05-05 02:21 | 37.15332 | 126.98789 | 15157 ft | 334 kts | 271° |
| 2026-05-05 02:21 | 37.15661 | 126.95929 | 15159 ft | 334 kts | 284° |
| 2026-05-05 02:21 | 37.16423 | 126.93149 | 15082 ft | 340 kts | 289° |
| 2026-05-05 02:22 | 37.17301 | 126.90398 | 14745 ft | 341 kts | 291° |
| 2026-05-05 02:22 | 37.18210 | 126.87641 | 14368 ft | 340 kts | 291° |
| 2026-05-05 02:22 | 37.19116 | 126.84920 | 14073 ft | 336 kts | 291° |
| 2026-05-05 02:22 | 37.20020 | 126.82231 | 13752 ft | 333 kts | 291° |
| 2026-05-05 02:23 | 37.20917 | 126.79559 | 13366 ft | 331 kts | 291° |
| 2026-05-05 02:23 | 37.21808 | 126.76907 | 13018 ft | 329 kts | 291° |
| 2026-05-05 02:23 | 37.22677 | 126.74329 | 12686 ft | 326 kts | 291° |
| 2026-05-05 02:23 | 37.23535 | 126.71790 | 12354 ft | 324 kts | 291° |
| 2026-05-05 02:24 | 37.24410 | 126.69201 | 12014 ft | 321 kts | 291° |
| 2026-05-05 02:24 | 37.25273 | 126.66629 | 11708 ft | 319 kts | 291° |
| 2026-05-05 02:24 | 37.26102 | 126.64092 | 11498 ft | 307 kts | 286° |
| 2026-05-05 02:24 | 37.26372 | 126.61492 | 11266 ft | 297 kts | 267° |
| 2026-05-05 02:25 | 37.26216 | 126.58929 | 11047 ft | 293 kts | 262° |
| 2026-05-05 02:25 | 37.25978 | 126.56407 | 10813 ft | 289 kts | 261° |
| 2026-05-05 02:25 | 37.25724 | 126.53912 | 10506 ft | 287 kts | 261° |
| 2026-05-05 02:25 | 37.25465 | 126.51436 | 10232 ft | 286 kts | 261° |
| 2026-05-05 02:26 | 37.25201 | 126.48969 | 9913 ft | 284 kts | 261° |
| 2026-05-05 02:26 | 37.24934 | 126.46524 | 9668 ft | 280 kts | 261° |
| 2026-05-05 02:26 | 37.24678 | 126.44136 | 9510 ft | 271 kts | 263° |
| 2026-05-05 02:26 | 37.24859 | 126.41801 | 9130 ft | 273 kts | 289° |
| 2026-05-05 02:27 | 37.25852 | 126.39784 | 9021 ft | 278 kts | 307° |
| 2026-05-05 02:27 | 37.27121 | 126.37957 | 8992 ft | 281 kts | 310° |
| 2026-05-05 02:27 | 37.28432 | 126.36170 | 8978 ft | 275 kts | 311° |
| 2026-05-05 02:27 | 37.29724 | 126.34422 | 8986 ft | 271 kts | 311° |
| 2026-05-05 02:28 | 37.31015 | 126.32683 | 9004 ft | 273 kts | 311° |
| 2026-05-05 02:28 | 37.32317 | 126.30933 | 9003 ft | 275 kts | 311° |
| 2026-05-05 02:28 | 37.33625 | 126.29177 | 8940 ft | 275 kts | 311° |
| 2026-05-05 02:28 | 37.34927 | 126.27430 | 8697 ft | 273 kts | 311° |
| 2026-05-05 02:29 | 37.36224 | 126.25697 | 8422 ft | 271 kts | 311° |
| 2026-05-05 02:29 | 37.37512 | 126.23983 | 8116 ft | 269 kts | 311° |
| 2026-05-05 02:29 | 37.38794 | 126.22284 | 7827 ft | 268 kts | 311° |
| 2026-05-05 02:29 | 37.40074 | 126.20591 | 7567 ft | 265 kts | 311° |
| 2026-05-05 02:30 | 37.41325 | 126.18944 | 7460 ft | 256 kts | 311° |
| 2026-05-05 02:30 | 37.42538 | 126.17353 | 7331 ft | 248 kts | 311° |
| 2026-05-05 02:30 | 37.43728 | 126.15801 | 7062 ft | 247 kts | 311° |
| 2026-05-05 02:30 | 37.44929 | 126.14235 | 6722 ft | 249 kts | 311° |
| 2026-05-05 02:31 | 37.46148 | 126.12688 | 6389 ft | 248 kts | 317° |
| 2026-05-05 02:31 | 37.47704 | 126.11710 | 5932 ft | 258 kts | 347° |
| 2026-05-05 02:31 | 37.49498 | 126.11839 | 5592 ft | 263 kts | 18° |
| 2026-05-05 02:31 | 37.51131 | 126.12836 | 5366 ft | 259 kts | 29° |
| 2026-05-05 02:32 | 37.52647 | 126.13979 | 5266 ft | 249 kts | 31° |
| 2026-05-05 02:32 | 37.54098 | 126.15094 | 5149 ft | 240 kts | 31° |
| 2026-05-05 02:32 | 37.55495 | 126.16173 | 4990 ft | 232 kts | 31° |
| 2026-05-05 02:32 | 37.56857 | 126.17226 | 4768 ft | 228 kts | 31° |
| 2026-05-05 02:33 | 37.58189 | 126.18253 | 4611 ft | 219 kts | 31° |
| 2026-05-05 02:33 | 37.59360 | 126.19372 | 4412 ft | 208 kts | 54° |
| 2026-05-05 02:33 | 37.59914 | 126.21004 | 4107 ft | 200 kts | 81° |
| 2026-05-05 02:33 | 37.60207 | 126.22681 | 3940 ft | 190 kts | 81° |
| 2026-05-05 02:34 | 37.60499 | 126.24261 | 3721 ft | 182 kts | 81° |
| 2026-05-05 02:34 | 37.60790 | 126.25788 | 3457 ft | 177 kts | 81° |
| 2026-05-05 02:34 | 37.61011 | 126.27288 | 3066 ft | 170 kts | 98° |
| 2026-05-05 02:34 | 37.60760 | 126.28712 | 2617 ft | 166 kts | 112° |
| 2026-05-05 02:35 | 37.60467 | 126.30117 | 2288 ft | 165 kts | 111° |
| 2026-05-05 02:35 | 37.60185 | 126.31504 | 1911 ft | 162 kts | 111° |
| 2026-05-05 02:35 | 37.59905 | 126.32839 | 1615 ft | 160 kts | 115° |
| 2026-05-05 02:35 | 37.59258 | 126.33921 | 1636 ft | 153 kts | 146° |
| 2026-05-05 02:36 | 37.58438 | 126.34809 | 1599 ft | 155 kts | 142° |
| 2026-05-05 02:36 | 37.57650 | 126.35674 | 1583 ft | 150 kts | 146° |
| 2026-05-05 02:36 | 37.56835 | 126.36459 | 1566 ft | 142 kts | 149° |
| 2026-05-05 02:36 | 37.56060 | 126.37167 | 1602 ft | 134 kts | 150° |
| 2026-05-05 02:37 | 37.55298 | 126.37850 | 1616 ft | 136 kts | 150° |
| 2026-05-05 02:37 | 37.54519 | 126.38547 | 1572 ft | 139 kts | 150° |
| 2026-05-05 02:37 | 37.53718 | 126.39262 | 1359 ft | 141 kts | 149° |
| 2026-05-05 02:37 | 37.52938 | 126.39964 | 1178 ft | 136 kts | 149° |
| 2026-05-05 02:38 | 37.52170 | 126.40646 | 976 ft | 134 kts | 148° |
| 2026-05-05 02:38 | 37.51417 | 126.41326 | 791 ft | 133 kts | 147° |
| 2026-05-05 02:38 | 37.50652 | 126.42007 | 663 ft | 136 kts | 146° |
| 2026-05-05 02:38 | 37.49886 | 126.42690 | 418 ft | 133 kts | 148° |
| 2026-05-05 02:39 | 37.49138 | 126.43360 | 238 ft | 132 kts | 147° |
| 2026-05-05 02:39 | 37.48382 | 126.44033 | 86 ft | 133 kts | 147° |
| 2026-05-05 02:39 | 37.47659 | 126.44670 | 38 ft | 115 kts | 145° |
| 2026-05-05 02:39 | 37.47128 | 126.45144 | 37 ft | 71 kts | 144° |
| 2026-05-05 02:40 | 37.46833 | 126.45373 | 37 ft | 36 kts | 160° |
| 2026-05-05 02:40 | 37.46636 | 126.45413 | 37 ft | 22 kts | 175° |
| 2026-05-05 02:40 | 37.46499 | 126.45441 | 37 ft | 17 kts | 155° |
| 2026-05-05 02:40 | 37.46458 | 126.45474 | 37 ft | 0 kts | 146° |
| 2026-05-05 02:41 | 37.46454 | 126.45477 | 37 ft | 2 kts | 146° |
| 2026-05-05 02:41 | 37.46404 | 126.45506 | 37 ft | 10 kts | 175° |
| 2026-05-05 02:41 | 37.46348 | 126.45457 | 37 ft | 11 kts | 235° |
| 2026-05-05 02:41 | 37.46304 | 126.45385 | 37 ft | 11 kts | 234° |
| 2026-05-05 02:42 | 37.46260 | 126.45304 | 37 ft | 12 kts | 234° |
| 2026-05-05 02:42 | 37.46211 | 126.45220 | 37 ft | 12 kts | 234° |
| 2026-05-05 02:42 | 37.46194 | 126.45136 | 37 ft | 9 kts | 276° |
| 2026-05-05 02:42 | 37.46227 | 126.45103 | 37 ft | 0 kts | 327° |
| 2026-05-05 02:43 | 37.46244 | 126.45089 | 37 ft | 10 kts | 327° |
| 2026-05-05 02:43 | 37.46316 | 126.45026 | 37 ft | 13 kts | 324° |
| 2026-05-05 02:43 | 37.46396 | 126.44954 | 37 ft | 15 kts | 324° |
| 2026-05-05 02:44 | 37.46481 | 126.44878 | 37 ft | 16 kts | 324° |
| 2026-05-05 02:44 | 37.46573 | 126.44797 | 37 ft | 17 kts | 324° |
| 2026-05-05 02:44 | 37.46642 | 126.44735 | 37 ft | 12 kts | 325° |
| 2026-05-05 02:44 | 37.46703 | 126.44679 | 37 ft | 9 kts | 314° |
| 2026-05-05 02:45 | 37.46703 | 126.44602 | 37 ft | 10 kts | 242° |
| 2026-05-05 02:45 | 37.46664 | 126.44528 | 37 ft | 11 kts | 236° |
| 2026-05-05 02:45 | 37.46623 | 126.44447 | 37 ft | 11 kts | 242° |
| 2026-05-05 02:45 | 37.46580 | 126.44362 | 38 ft | 12 kts | 235° |
| 2026-05-05 02:46 | 37.46530 | 126.44273 | 38 ft | 13 kts | 235° |
| 2026-05-05 02:46 | 37.46480 | 126.44182 | 38 ft | 13 kts | 231° |
| 2026-05-05 02:46 | 37.46426 | 126.44090 | 38 ft | 13 kts | 235° |
| 2026-05-05 02:46 | 37.46374 | 126.43998 | 38 ft | 13 kts | 234° |
| 2026-05-05 02:47 | 37.46324 | 126.43910 | 38 ft | 12 kts | 234° |
| 2026-05-05 02:47 | 37.46275 | 126.43822 | 38 ft | 12 kts | 234° |
| 2026-05-05 02:47 | 37.46225 | 126.43735 | 38 ft | 12 kts | 234° |
| 2026-05-05 02:47 | 37.46176 | 126.43647 | 38 ft | 12 kts | 234° |
| 2026-05-05 02:48 | 37.46127 | 126.43559 | 38 ft | 12 kts | 234° |
| 2026-05-05 02:48 | 37.46082 | 126.43481 | 38 ft | 10 kts | 234° |
| 2026-05-05 02:48 | 37.46042 | 126.43409 | 38 ft | 10 kts | 234° |
| 2026-05-05 02:48 | 37.46010 | 126.43333 | 38 ft | 10 kts | 265° |
| 2026-05-05 02:49 | 37.46047 | 126.43263 | 38 ft | 10 kts | 324° |
| 2026-05-05 02:49 | 37.46104 | 126.43212 | 38 ft | 10 kts | 325° |
| 2026-05-05 02:49 | 37.46161 | 126.43162 | 38 ft | 10 kts | 325° |
| 2026-05-05 02:49 | 37.46223 | 126.43122 | 38 ft | 10 kts | 336° |
| 2026-05-05 02:50 | 37.46271 | 126.43100 | 38 ft | 4 kts | 357° |
| 2026-05-05 02:50 | 37.46294 | 126.43119 | 38 ft | 4 kts | 52° |
| 2026-05-05 02:50 | 37.46307 | 126.43152 | 38 ft | 4 kts | 68° |
| 2026-05-05 02:50 | 37.46317 | 126.43183 | 38 ft | 3 kts | 68° |
| 2026-05-05 02:51 | 37.46321 | 126.43196 | 38 ft | 1 kts | 69° |
| 2026-05-05 02:51 | 37.46323 | 126.43202 | 38 ft | 1 kts | 69° |
| 2026-05-05 02:51 | 37.46324 | 126.43207 | 38 ft | 1 kts | 69° |
| 2026-05-05 02:51 | 37.46326 | 126.43212 | 38 ft | 0 kts | 69° |